createdAt,value
2022-10-09T00:01:32.204Z,11.00
2022-10-09T00:04:00.669Z,11.10
2022-10-09T00:06:31.810Z,11.40
2022-10-09T00:09:04.072Z,11.90
2022-10-09T00:11:34.101Z,12.20
2022-10-09T00:14:03.611Z,11.20
2022-10-09T00:16:32.688Z,11.40
2022-10-09T00:19:01.282Z,10.90
2022-10-09T00:21:32.098Z,11.30
2022-10-09T00:24:03.076Z,11.40
2022-10-09T00:26:32.056Z,11.80
2022-10-09T00:29:00.351Z,11.50
2022-10-09T00:31:29.264Z,12.10
2022-10-09T00:33:57.689Z,10.70
2022-10-09T00:36:27.133Z,11.30
2022-10-09T00:38:56.628Z,9.80
2022-10-09T00:41:28.691Z,10.60
2022-10-09T00:44:02.943Z,9.70
2022-10-09T00:46:50.897Z,9.50
2022-10-09T00:49:27.355Z,9.90
2022-10-09T00:51:59.697Z,9.70
2022-10-09T00:54:32.161Z,8.40
2022-10-09T00:57:00.791Z,7.80
2022-10-09T00:59:30.056Z,8.70
2022-10-09T01:01:58.747Z,9.00
2022-10-09T01:04:27.145Z,8.50
2022-10-09T01:07:19.360Z,7.50
2022-10-09T01:10:13.860Z,7.60
2022-10-09T01:13:04.175Z,7.40
2022-10-09T01:15:41.172Z,8.20
2022-10-09T01:18:15.848Z,8.70
2022-10-09T01:21:04.212Z,8.50
2022-10-09T01:23:56.797Z,8.20
2022-10-09T01:26:49.628Z,6.90
2022-10-09T01:29:21.667Z,6.60
2022-10-09T01:31:52.650Z,6.60
2022-10-09T01:34:21.818Z,7.20
2022-10-09T01:36:51.740Z,5.00
2022-10-09T01:39:22.903Z,5.40
2022-10-09T01:41:53.911Z,5.10
2022-10-09T01:44:25.273Z,4.40
2022-10-09T01:46:53.559Z,5.00
2022-10-09T01:49:28.390Z,5.20
2022-10-09T01:52:24.760Z,5.60
2022-10-09T01:55:11.436Z,5.30
2022-10-09T01:57:45.563Z,4.50
2022-10-09T02:00:14.954Z,4.90
2022-10-09T02:02:44.995Z,5.10
2022-10-09T02:05:19.174Z,4.60
2022-10-09T02:07:47.974Z,4.90
2022-10-09T02:10:18.896Z,5.00
2022-10-09T02:12:53.400Z,4.70
2022-10-09T02:15:25.721Z,4.90
2022-10-09T02:18:00.481Z,5.00
2022-10-09T02:20:32.809Z,5.30
2022-10-09T02:23:04.674Z,5.10
2022-10-09T02:25:33.364Z,5.80
2022-10-09T02:28:02.704Z,5.40
2022-10-09T02:30:44.574Z,4.60
2022-10-09T02:33:13.063Z,4.50
2022-10-09T02:35:41.436Z,5.10
2022-10-09T02:38:09.541Z,4.40
2022-10-09T02:40:37.496Z,5.30
2022-10-09T02:43:05.445Z,4.80
2022-10-09T02:45:33.523Z,4.30
2022-10-09T02:48:01.698Z,4.30
2022-10-09T02:50:29.790Z,4.70
2022-10-09T02:52:57.840Z,4.40
2022-10-09T02:55:25.918Z,4.90
2022-10-09T02:57:53.889Z,4.00
2022-10-09T03:00:22.167Z,5.00
2022-10-09T03:02:50.522Z,4.60
2022-10-09T03:05:18.833Z,4.90
2022-10-09T03:07:51.717Z,4.30
2022-10-09T03:10:20.956Z,4.80
2022-10-09T03:12:49.291Z,4.30
2022-10-09T03:15:17.608Z,5.50
2022-10-09T03:17:45.840Z,5.10
2022-10-09T03:20:13.804Z,5.60
2022-10-09T03:22:41.996Z,4.50
2022-10-09T03:25:10.163Z,7.20
2022-10-09T03:27:38.448Z,7.30
2022-10-09T03:30:07.498Z,7.10
2022-10-09T03:32:35.823Z,7.50
2022-10-09T03:35:04.527Z,8.50
2022-10-09T03:37:32.687Z,10.30
2022-10-09T03:40:00.868Z,5.90
2022-10-09T03:42:29.038Z,6.80
2022-10-09T03:45:00.975Z,9.20
2022-10-09T03:47:29.178Z,11.00
2022-10-09T03:49:57.561Z,10.00
2022-10-09T03:52:25.655Z,12.70
2022-10-09T03:54:54.006Z,10.70
2022-10-09T03:57:22.121Z,7.80
2022-10-09T03:59:50.159Z,9.50
2022-10-09T04:02:18.380Z,10.10
2022-10-09T04:04:46.727Z,6.00
2022-10-09T04:07:14.780Z,4.00
2022-10-09T04:09:42.900Z,6.60
2022-10-09T04:12:11.037Z,5.30
2022-10-09T04:14:39.051Z,4.90
2022-10-09T04:17:07.392Z,5.00
2022-10-09T04:19:36.486Z,4.90
2022-10-09T04:22:04.492Z,4.00
2022-10-09T04:24:32.632Z,3.70
2022-10-09T04:27:00.707Z,4.30
2022-10-09T04:29:29.093Z,5.00
2022-10-09T04:31:57.116Z,5.80
2022-10-09T04:34:25.148Z,6.10
2022-10-09T04:36:53.301Z,6.00
2022-10-09T04:39:21.420Z,5.80
2022-10-09T04:41:49.445Z,6.10
2022-10-09T04:44:17.833Z,7.00
2022-10-09T04:46:45.922Z,6.10
2022-10-09T04:49:14.484Z,5.60
2022-10-09T04:51:44.204Z,4.80
2022-10-09T04:54:12.994Z,6.00
2022-10-09T04:56:41.169Z,4.60
2022-10-09T04:59:09.260Z,6.20
2022-10-09T05:01:38.655Z,6.20
2022-10-09T05:04:07.018Z,7.30
2022-10-09T05:06:35.102Z,8.80
2022-10-09T05:09:03.789Z,8.90
2022-10-09T05:11:31.854Z,9.10
2022-10-09T05:13:59.932Z,11.50
2022-10-09T05:16:29.633Z,10.40
2022-10-09T05:19:00.313Z,10.30
2022-10-09T05:21:29.869Z,9.70
2022-10-09T05:23:58.191Z,9.50
2022-10-09T05:26:27.776Z,9.50
2022-10-09T05:28:56.156Z,11.70
2022-10-09T05:31:28.998Z,11.80
2022-10-09T05:34:00.510Z,7.80
2022-10-09T05:36:29.080Z,12.30
2022-10-09T05:38:57.795Z,8.60
2022-10-09T05:41:26.142Z,5.30
2022-10-09T05:43:54.564Z,5.50
2022-10-09T05:46:25.164Z,5.80
2022-10-09T05:49:02.178Z,5.30
2022-10-09T05:51:33.077Z,4.80
2022-10-09T05:54:04.027Z,9.60
2022-10-09T05:56:36.111Z,6.10
2022-10-09T05:59:09.832Z,9.40
2022-10-09T06:01:40.974Z,17.70
2022-10-09T06:04:13.995Z,14.80
2022-10-09T06:06:43.536Z,7.60
2022-10-09T06:09:12.262Z,10.30
2022-10-09T06:11:41.932Z,10.10
2022-10-09T06:14:12.903Z,10.00
2022-10-09T06:16:43.114Z,10.90
2022-10-09T06:19:16.961Z,11.60
2022-10-09T06:24:25.850Z,10.40
2022-10-09T06:26:59.820Z,6.50
2022-10-09T06:29:28.043Z,5.20
2022-10-09T06:31:57.157Z,4.70
2022-10-09T06:34:25.442Z,4.90
2022-10-09T06:36:53.589Z,4.20
2022-10-09T06:39:22.899Z,6.50
2022-10-09T06:41:51.189Z,6.00
2022-10-09T06:44:31.229Z,5.40
2022-10-09T06:46:59.407Z,6.20
2022-10-09T06:49:27.498Z,8.60
2022-10-09T06:51:55.655Z,11.40
2022-10-09T06:54:23.767Z,11.60
2022-10-09T06:56:54.889Z,11.10
2022-10-09T06:59:22.940Z,8.50
2022-10-09T07:01:51.152Z,6.90
2022-10-09T07:04:19.402Z,5.40
2022-10-09T07:06:48.388Z,5.50
2022-10-09T07:09:17.290Z,6.00
2022-10-09T07:11:49.537Z,5.10
2022-10-09T07:14:18.260Z,5.00
2022-10-09T07:16:48.792Z,4.60
2022-10-09T07:19:18.194Z,5.50
2022-10-09T07:21:49.226Z,5.20
2022-10-09T07:24:20.603Z,5.20
2022-10-09T07:26:49.166Z,5.40
2022-10-09T07:29:19.722Z,5.40
2022-10-09T07:31:48.075Z,6.30
2022-10-09T07:34:16.564Z,12.80
2022-10-09T07:36:44.854Z,5.90
2022-10-09T07:39:13.310Z,6.10
2022-10-09T07:41:41.495Z,6.40
2022-10-09T07:44:10.409Z,5.30
2022-10-09T07:46:38.594Z,4.90
2022-10-09T07:49:07.126Z,5.10
2022-10-09T07:51:35.213Z,4.50
2022-10-09T07:54:03.599Z,4.80
2022-10-09T07:56:34.521Z,4.70
2022-10-09T07:59:08.445Z,5.30
2022-10-09T08:01:36.801Z,5.20
2022-10-09T08:04:05.765Z,4.30
2022-10-09T08:06:34.815Z,4.80
2022-10-09T08:09:05.517Z,4.90
2022-10-09T08:11:33.743Z,4.60
2022-10-09T08:14:01.913Z,4.70
2022-10-09T08:16:32.751Z,5.00
2022-10-09T08:19:02.280Z,5.00
2022-10-09T08:21:33.193Z,5.70
2022-10-09T08:24:01.361Z,5.00
2022-10-09T08:26:30.702Z,5.40
2022-10-09T08:29:04.448Z,4.90
2022-10-09T08:31:33.091Z,4.70
2022-10-09T08:34:04.009Z,4.70
2022-10-09T08:36:33.028Z,4.90
2022-10-09T08:39:01.289Z,4.70
2022-10-09T08:41:42.378Z,5.50
2022-10-09T08:44:28.195Z,4.80
2022-10-09T08:46:59.814Z,5.20
2022-10-09T08:49:40.379Z,5.50
2022-10-09T08:52:49.882Z,5.00
2022-10-09T08:55:24.335Z,5.40
2022-10-09T08:57:55.764Z,5.60
2022-10-09T09:00:28.301Z,5.20
2022-10-09T09:03:15.179Z,5.40
2022-10-09T09:06:06.704Z,7.80
2022-10-09T09:09:06.647Z,5.30
2022-10-09T09:11:37.871Z,5.10
2022-10-09T09:14:27.356Z,4.70
2022-10-09T09:17:33.724Z,4.80
2022-10-09T09:20:51.462Z,4.90
2022-10-09T09:23:51.485Z,5.20
2022-10-09T09:26:22.089Z,5.70
2022-10-09T09:28:55.243Z,5.80
2022-10-09T09:31:29.960Z,5.20
2022-10-09T09:34:01.173Z,5.50
2022-10-09T09:36:40.313Z,5.60
2022-10-09T09:42:19.599Z,6.30
2022-10-09T09:45:03.203Z,6.20
2022-10-09T09:47:47.816Z,5.80
2022-10-09T09:50:42.388Z,6.70
2022-10-09T09:53:14.249Z,6.30
2022-10-09T09:55:43.111Z,7.20
2022-10-09T09:58:18.100Z,6.50
2022-10-09T10:00:58.027Z,6.80
2022-10-09T10:03:26.089Z,6.50
2022-10-09T10:05:54.765Z,6.10
2022-10-09T10:08:25.194Z,6.50
2022-10-09T10:10:56.494Z,5.70
2022-10-09T10:13:38.419Z,5.80
2022-10-09T10:16:08.951Z,6.80
2022-10-09T10:18:41.219Z,5.50
2022-10-09T10:21:16.377Z,6.40
2022-10-09T10:26:46.937Z,5.20
2022-10-09T10:29:34.286Z,6.10
2022-10-09T10:32:16.074Z,5.40
2022-10-09T10:35:06.051Z,5.30
2022-10-09T10:37:59.251Z,5.20
2022-10-09T10:40:35.472Z,5.50
2022-10-09T10:43:10.305Z,5.70
2022-10-09T10:45:44.213Z,4.90
2022-10-09T10:48:24.165Z,5.40
2022-10-09T10:51:13.840Z,5.40
2022-10-09T10:53:52.885Z,5.50
2022-10-09T10:56:30.182Z,5.10
2022-10-09T10:59:22.320Z,5.50
2022-10-09T11:02:14.131Z,5.30
2022-10-09T11:04:42.206Z,5.60
2022-10-09T11:07:16.318Z,5.60
2022-10-09T11:10:08.369Z,5.90
2022-10-09T11:12:50.664Z,5.70
2022-10-09T11:15:31.037Z,5.60
2022-10-09T11:18:11.054Z,5.80
2022-10-09T11:21:00.557Z,6.30
2022-10-09T11:23:28.623Z,5.60
2022-10-09T11:26:20.494Z,6.50
2022-10-09T11:28:59.528Z,4.90
2022-10-09T11:31:40.890Z,5.30
2022-10-09T11:34:42.323Z,6.10
2022-10-09T11:37:19.560Z,9.30
2022-10-09T11:39:47.693Z,10.00
2022-10-09T11:42:21.809Z,5.80
2022-10-09T11:45:08.733Z,24.20
2022-10-09T11:47:58.788Z,12.30
2022-10-09T11:51:02.112Z,7.40
2022-10-09T11:53:31.927Z,13.10
2022-10-09T11:56:30.509Z,13.00
2022-10-09T11:59:01.367Z,11.30
2022-10-09T12:01:34.908Z,5.40
2022-10-09T12:06:55.782Z,7.20
2022-10-09T12:09:30.408Z,7.60
2022-10-09T12:12:07.426Z,9.30
2022-10-09T12:14:38.669Z,10.80
2022-10-09T12:17:38.764Z,12.60
2022-10-09T12:20:16.660Z,9.20
2022-10-09T12:23:13.900Z,7.10
2022-10-09T12:25:46.124Z,6.00
2022-10-09T12:28:24.721Z,8.10
2022-10-09T12:30:53.324Z,9.90
2022-10-09T12:33:29.909Z,7.70
2022-10-09T12:36:04.019Z,8.80
2022-10-09T12:38:33.591Z,7.40
2022-10-09T12:41:05.863Z,7.60
2022-10-09T12:43:36.487Z,9.00
2022-10-09T12:46:04.974Z,7.70
2022-10-09T12:48:39.703Z,8.30
2022-10-09T12:51:23.390Z,9.50
2022-10-09T12:53:52.954Z,13.30
2022-10-09T12:56:29.963Z,7.40
2022-10-09T12:58:59.860Z,7.50
2022-10-09T13:01:28.859Z,9.60
2022-10-09T13:04:04.613Z,8.30
2022-10-09T13:06:45.097Z,8.90
2022-10-09T13:09:27.001Z,8.90
2022-10-09T13:12:26.277Z,9.50
2022-10-09T13:15:00.492Z,8.20
2022-10-09T13:17:35.403Z,9.50
2022-10-09T13:20:25.202Z,8.30
2022-10-09T13:22:56.558Z,9.00
2022-10-09T13:25:34.291Z,6.90
2022-10-09T13:28:03.455Z,10.60
2022-10-09T13:30:32.442Z,7.70
2022-10-09T13:33:00.678Z,7.40
2022-10-09T13:35:28.810Z,6.20
2022-10-09T13:37:56.911Z,8.60
2022-10-09T13:40:25.464Z,9.50
2022-10-09T13:42:57.636Z,10.30
2022-10-09T13:45:25.855Z,8.30
2022-10-09T13:47:54.103Z,9.30
2022-10-09T13:50:22.264Z,9.90
2022-10-09T13:52:50.364Z,9.80
2022-10-09T13:55:18.406Z,10.50
2022-10-09T13:57:47.188Z,10.40
2022-10-09T14:00:15.486Z,9.30
2022-10-09T14:02:43.952Z,9.90
2022-10-09T14:05:12.057Z,10.40
2022-10-09T14:07:40.209Z,9.70
2022-10-09T14:10:09.149Z,10.00
2022-10-09T14:12:37.587Z,10.00
2022-10-09T14:15:07.301Z,9.50
2022-10-09T14:17:35.309Z,10.80
2022-10-09T14:20:04.262Z,10.60
2022-10-09T14:22:32.430Z,9.80
2022-10-09T14:25:00.715Z,9.10
2022-10-09T14:27:28.907Z,9.60
2022-10-09T14:29:57.414Z,8.90
2022-10-09T14:32:26.778Z,8.60
2022-10-09T14:34:55.261Z,8.70
2022-10-09T14:37:40.478Z,8.90
2022-10-09T14:40:11.659Z,9.70
2022-10-09T14:42:40.210Z,10.00
2022-10-09T14:45:09.598Z,8.80
2022-10-09T14:47:37.766Z,9.40
2022-10-09T14:50:06.435Z,9.70
2022-10-09T14:52:34.506Z,9.70
2022-10-09T14:55:02.584Z,8.40
2022-10-09T14:57:35.211Z,9.00
2022-10-09T15:00:05.864Z,10.00
2022-10-09T15:02:34.300Z,9.90
2022-10-09T15:05:03.569Z,9.90
2022-10-09T15:07:33.739Z,10.20
2022-10-09T15:10:01.873Z,10.60
2022-10-09T15:12:29.886Z,10.30
2022-10-09T15:14:58.021Z,11.50
2022-10-09T15:17:26.087Z,9.70
2022-10-09T15:19:54.297Z,9.90
2022-10-09T15:22:22.445Z,8.70
2022-10-09T15:24:50.825Z,9.60
2022-10-09T15:27:18.910Z,10.10
2022-10-09T15:29:46.972Z,10.60
2022-10-09T15:32:15.159Z,9.30
2022-10-09T15:34:43.317Z,10.20
2022-10-09T15:37:11.857Z,9.80
2022-10-09T15:39:39.984Z,9.50
2022-10-09T15:42:08.152Z,8.70
2022-10-09T15:44:36.067Z,10.00
2022-10-09T15:47:04.195Z,10.10
2022-10-09T15:49:32.320Z,9.20
2022-10-09T15:52:00.757Z,10.70
2022-10-09T15:54:28.809Z,11.00
2022-10-09T15:56:56.940Z,11.00
2022-10-09T15:59:25.995Z,11.70
2022-10-09T16:01:54.137Z,13.90
2022-10-09T16:04:22.258Z,13.40
2022-10-09T16:06:50.836Z,13.20
2022-10-09T16:09:18.851Z,11.40
2022-10-09T16:11:46.879Z,10.60
2022-10-09T16:14:15.262Z,11.90
2022-10-09T16:16:43.348Z,16.10
2022-10-09T16:19:11.407Z,11.60
2022-10-09T16:21:39.592Z,12.50
2022-10-09T16:24:07.763Z,19.20
2022-10-09T16:26:35.933Z,21.10
2022-10-09T16:29:04.323Z,14.90
2022-10-09T16:31:35.002Z,11.00
2022-10-09T16:34:05.750Z,10.30
2022-10-09T16:36:34.618Z,9.90
2022-10-09T16:39:02.759Z,10.20
2022-10-09T16:41:31.257Z,9.90
2022-10-09T16:44:00.449Z,8.50
2022-10-09T16:46:35.422Z,10.30
2022-10-09T16:49:04.621Z,10.70
2022-10-09T16:51:35.670Z,10.50
2022-10-09T16:54:05.869Z,13.70
2022-10-09T16:56:37.279Z,22.60
2022-10-09T16:59:08.734Z,22.50
2022-10-09T17:01:38.151Z,21.00
2022-10-09T17:04:06.422Z,22.40
2022-10-09T17:06:34.598Z,23.20
2022-10-09T17:09:02.969Z,24.30
2022-10-09T17:11:32.460Z,28.00
2022-10-09T17:14:00.650Z,26.80
2022-10-09T17:16:32.458Z,23.50
2022-10-09T17:19:01.319Z,21.70
2022-10-09T17:21:34.142Z,21.00
2022-10-09T17:24:05.037Z,16.50
2022-10-09T17:26:34.372Z,19.30
2022-10-09T17:29:03.700Z,34.30
2022-10-09T17:31:32.422Z,32.40
2022-10-09T17:34:02.765Z,29.80
2022-10-09T17:36:34.961Z,25.90
2022-10-09T17:39:05.066Z,33.70
2022-10-09T17:41:33.156Z,34.00
2022-10-09T17:44:01.186Z,28.50
2022-10-09T17:46:30.925Z,27.20
2022-10-09T17:49:00.308Z,27.80
2022-10-09T17:51:31.458Z,25.70
2022-10-09T17:54:03.371Z,22.90
2022-10-09T17:56:33.337Z,28.70
2022-10-09T17:59:02.742Z,23.80
2022-10-09T18:01:31.741Z,28.60
2022-10-09T18:04:00.218Z,22.00
2022-10-09T18:06:33.152Z,24.70
2022-10-09T18:09:02.637Z,25.90
2022-10-09T18:11:30.890Z,19.80
2022-10-09T18:13:59.036Z,23.70
2022-10-09T18:16:36.347Z,28.80
2022-10-09T18:19:16.309Z,24.10
2022-10-09T18:21:47.444Z,23.10
2022-10-09T18:24:16.344Z,23.20
2022-10-09T18:26:45.155Z,25.30
2022-10-09T18:29:13.414Z,27.20
2022-10-09T18:31:41.474Z,29.60
2022-10-09T18:34:10.693Z,24.00
2022-10-09T18:36:39.687Z,25.80
2022-10-09T18:39:12.252Z,27.20
2022-10-09T18:41:40.978Z,30.70
2022-10-09T18:44:17.721Z,29.90
2022-10-09T18:46:54.491Z,27.80
2022-10-09T18:49:27.870Z,38.50
2022-10-09T18:51:57.790Z,21.10
2022-10-09T18:54:27.717Z,23.60
2022-10-09T18:56:57.137Z,32.00
2022-10-09T18:59:25.729Z,33.40
2022-10-09T19:01:54.001Z,31.40
2022-10-09T19:04:22.118Z,31.50
2022-10-09T19:06:51.470Z,30.10
2022-10-09T19:09:19.645Z,30.50
2022-10-09T19:11:48.239Z,33.20
2022-10-09T19:14:16.413Z,30.80
2022-10-09T19:16:45.127Z,29.90
2022-10-09T19:19:13.687Z,38.20
2022-10-09T19:21:44.221Z,30.20
2022-10-09T19:24:13.674Z,27.00
2022-10-09T19:26:42.720Z,28.30
2022-10-09T19:29:11.203Z,30.80
2022-10-09T19:31:39.172Z,29.40
2022-10-09T19:34:07.456Z,27.70
2022-10-09T19:36:37.055Z,33.50
2022-10-09T19:39:07.967Z,22.80
2022-10-09T19:41:36.382Z,28.20
2022-10-09T19:44:04.672Z,22.60
2022-10-09T19:46:32.725Z,22.80
2022-10-09T19:49:01.150Z,20.20
2022-10-09T19:51:29.490Z,20.70
2022-10-09T19:53:59.241Z,24.90
2022-10-09T19:56:31.210Z,36.40
2022-10-09T19:59:04.278Z,31.00
2022-10-09T20:01:35.541Z,27.60
2022-10-09T20:04:07.937Z,26.80
2022-10-09T20:06:41.224Z,27.70
2022-10-09T20:09:11.510Z,26.40
2022-10-09T20:11:40.207Z,25.00
2022-10-09T20:14:09.857Z,69.20
2022-10-09T20:16:38.694Z,24.90
2022-10-09T20:19:07.035Z,23.60
2022-10-09T20:21:35.671Z,20.80
2022-10-09T20:24:06.286Z,22.20
2022-10-09T20:26:34.346Z,15.70
2022-10-09T20:29:02.444Z,19.70
2022-10-09T20:31:30.486Z,15.20
2022-10-09T20:33:59.116Z,13.40
2022-10-09T20:36:35.252Z,13.30
2022-10-09T20:39:09.164Z,11.20
2022-10-09T20:41:38.610Z,10.90
2022-10-09T20:44:07.266Z,10.90
2022-10-09T20:46:37.685Z,9.10
2022-10-09T20:49:09.030Z,8.90
2022-10-09T20:51:38.709Z,7.90
2022-10-09T20:54:08.596Z,7.90
2022-10-09T20:56:37.045Z,11.20
2022-10-09T20:59:05.120Z,16.90
2022-10-09T21:01:33.469Z,13.20
2022-10-09T21:04:01.894Z,9.10
2022-10-09T21:06:34.258Z,8.70
2022-10-09T21:09:03.347Z,10.00
2022-10-09T21:11:35.145Z,10.60
2022-10-09T21:14:04.112Z,10.90
2022-10-09T21:16:32.287Z,11.90
2022-10-09T21:19:02.718Z,13.40
2022-10-09T21:21:32.119Z,13.60
2022-10-09T21:24:01.757Z,24.80
2022-10-09T21:26:35.402Z,15.60
2022-10-09T21:31:33.863Z,13.10
2022-10-09T21:34:02.830Z,10.30
2022-10-09T21:36:30.893Z,10.90
2022-10-09T21:38:59.388Z,10.90
2022-10-09T21:41:27.437Z,9.80
2022-10-09T21:43:56.554Z,17.30
2022-10-09T21:46:24.935Z,25.90
2022-10-09T21:48:53.520Z,9.60
2022-10-09T21:51:21.620Z,9.70
2022-10-09T21:53:49.762Z,9.60
2022-10-09T21:56:18.396Z,10.90
2022-10-09T21:58:49.093Z,10.00
2022-10-09T22:01:17.874Z,9.90
2022-10-09T22:03:46.193Z,32.80
2022-10-09T22:06:19.144Z,14.70
2022-10-09T22:08:48.188Z,18.30
2022-10-09T22:11:17.265Z,21.00
2022-10-09T22:13:45.298Z,17.90
2022-10-09T22:16:15.401Z,15.30
2022-10-09T22:18:43.476Z,10.20
2022-10-09T22:21:13.943Z,9.20
2022-10-09T22:23:42.660Z,11.80
2022-10-09T22:26:17.640Z,14.90
2022-10-09T22:28:46.952Z,12.60
2022-10-09T22:31:19.212Z,13.30
2022-10-09T22:33:56.167Z,11.70
2022-10-09T22:36:26.636Z,10.20
2022-10-09T22:39:00.238Z,10.00
2022-10-09T22:44:00.103Z,8.80
2022-10-09T22:46:31.200Z,8.80
2022-10-09T22:49:00.826Z,10.70
2022-10-09T22:51:30.134Z,10.00
2022-10-09T22:53:59.222Z,11.10
2022-10-09T22:56:30.970Z,9.60
2022-10-09T22:58:59.264Z,10.30
2022-10-09T23:01:39.250Z,11.10
2022-10-09T23:04:10.520Z,12.20
2022-10-09T23:06:39.802Z,12.70
2022-10-09T23:09:10.969Z,27.90
2022-10-09T23:11:39.581Z,21.40
2022-10-09T23:14:08.731Z,16.50
2022-10-09T23:16:37.587Z,15.40
2022-10-09T23:19:07.297Z,15.50
2022-10-09T23:21:38.896Z,14.80
2022-10-09T23:24:08.430Z,10.10
2022-10-09T23:26:37.775Z,9.80
2022-10-09T23:29:08.547Z,9.40
2022-10-09T23:31:37.189Z,9.10
2022-10-09T23:34:07.004Z,11.00
2022-10-09T23:36:35.713Z,11.80
2022-10-09T23:39:05.721Z,11.80
2022-10-09T23:41:34.507Z,17.40
2022-10-09T23:44:02.702Z,14.50
2022-10-09T23:46:35.874Z,12.50
2022-10-09T23:49:05.076Z,10.40
2022-10-09T23:51:34.286Z,9.70
2022-10-09T23:54:02.348Z,10.30
2022-10-09T23:56:35.749Z,9.40
2022-10-09T23:59:09.230Z,10.30
